sensor_id;sensor_type;location;lat;lon;timestamp;pressure;altitude;pressure_sealevel;temperature;humidity
4814;BME280;15375;48.540;9.268;2022-08-04T00:00:28;97169.84;;;21.17;79.08
4814;BME280;15375;48.540;9.268;2022-08-04T00:05:44;97174.94;;;20.98;81.11
4814;BME280;15375;48.540;9.268;2022-08-04T00:08:19;97173.97;;;21.01;81.44
4814;BME280;15375;48.540;9.268;2022-08-04T00:10:49;97183.75;;;20.96;80.44
4814;BME280;15375;48.540;9.268;2022-08-04T00:13:21;97181.31;;;21.04;81.66
4814;BME280;15375;48.540;9.268;2022-08-04T00:15:52;97156.69;;;20.86;80.40
4814;BME280;15375;48.540;9.268;2022-08-04T00:18:21;97170.16;;;20.98;80.42
4814;BME280;15375;48.540;9.268;2022-08-04T00:20:49;97168.03;;;20.88;82.44
4814;BME280;15375;48.540;9.268;2022-08-04T00:23:16;97157.06;;;20.73;81.77
4814;BME280;15375;48.540;9.268;2022-08-04T00:25:42;97165.44;;;20.79;81.33
4814;BME280;15375;48.540;9.268;2022-08-04T00:28:09;97177.06;;;20.83;81.94
4814;BME280;15375;48.540;9.268;2022-08-04T00:30:34;97168.75;;;20.83;82.95
4814;BME280;15375;48.540;9.268;2022-08-04T00:33:01;97182.66;;;20.88;81.77
4814;BME280;15375;48.540;9.268;2022-08-04T00:35:27;97175.19;;;20.69;81.41
4814;BME280;15375;48.540;9.268;2022-08-04T00:37:53;97190.81;;;20.72;79.91
4814;BME280;15375;48.540;9.268;2022-08-04T00:40:30;97168.84;;;20.43;80.11
4814;BME280;15375;48.540;9.268;2022-08-04T00:43:23;97178.25;;;20.51;80.23
4814;BME280;15375;48.540;9.268;2022-08-04T00:45:57;97192.00;;;20.65;79.81
4814;BME280;15375;48.540;9.268;2022-08-04T00:51:25;97201.16;;;20.71;82.20
4814;BME280;15375;48.540;9.268;2022-08-04T00:54:10;97199.09;;;20.66;80.42
4814;BME280;15375;48.540;9.268;2022-08-04T00:59:38;97191.13;;;20.54;82.11
4814;BME280;15375;48.540;9.268;2022-08-04T01:10:04;97194.53;;;20.43;80.75
4814;BME280;15375;48.540;9.268;2022-08-04T01:12:45;97196.59;;;20.48;81.38
4814;BME280;15375;48.540;9.268;2022-08-04T01:15:23;97193.16;;;20.33;82.44
4814;BME280;15375;48.540;9.268;2022-08-04T01:18:01;97189.78;;;20.23;83.13
4814;BME280;15375;48.540;9.268;2022-08-04T01:20:45;97189.81;;;20.09;83.11
4814;BME280;15375;48.540;9.268;2022-08-04T01:29:06;97192.16;;;20.16;85.93
4814;BME280;15375;48.540;9.268;2022-08-04T01:34:18;97195.75;;;20.02;87.89
4814;BME280;15375;48.540;9.268;2022-08-04T01:36:46;97179.41;;;19.84;90.44
4814;BME280;15375;48.540;9.268;2022-08-04T01:39:13;97169.13;;;19.69;90.34
4814;BME280;15375;48.540;9.268;2022-08-04T01:41:58;97164.19;;;19.59;91.38
4814;BME280;15375;48.540;9.268;2022-08-04T01:44:26;97168.41;;;19.54;90.01
4814;BME280;15375;48.540;9.268;2022-08-04T01:46:52;97142.31;;;19.41;89.05
4814;BME280;15375;48.540;9.268;2022-08-04T01:49:20;97172.31;;;19.62;89.16
4814;BME280;15375;48.540;9.268;2022-08-04T01:51:49;97166.22;;;19.58;88.54
4814;BME280;15375;48.540;9.268;2022-08-04T01:54:16;97137.34;;;19.45;88.72
4814;BME280;15375;48.540;9.268;2022-08-04T01:56:42;97145.50;;;19.54;87.83
4814;BME280;15375;48.540;9.268;2022-08-04T01:59:11;97143.50;;;19.54;88.12
4814;BME280;15375;48.540;9.268;2022-08-04T02:01:42;97149.91;;;19.60;86.38
4814;BME280;15375;48.540;9.268;2022-08-04T02:04:13;97146.00;;;19.52;85.45
4814;BME280;15375;48.540;9.268;2022-08-04T02:10:07;97161.50;;;19.64;84.80
4814;BME280;15375;48.540;9.268;2022-08-04T02:12:51;97162.09;;;19.68;85.59
4814;BME280;15375;48.540;9.268;2022-08-04T02:21:29;97155.56;;;19.71;84.31
4814;BME280;15375;48.540;9.268;2022-08-04T02:24:05;97148.72;;;19.67;84.00
4814;BME280;15375;48.540;9.268;2022-08-04T02:26:32;97133.06;;;19.64;84.32
4814;BME280;15375;48.540;9.268;2022-08-04T02:29:05;97156.75;;;19.65;83.81
4814;BME280;15375;48.540;9.268;2022-08-04T02:34:08;97126.63;;;19.52;83.63
4814;BME280;15375;48.540;9.268;2022-08-04T02:36:40;97139.78;;;19.57;83.57
4814;BME280;15375;48.540;9.268;2022-08-04T02:39:08;97147.75;;;19.70;84.33
4814;BME280;15375;48.540;9.268;2022-08-04T02:41:34;97135.84;;;19.64;85.87
4814;BME280;15375;48.540;9.268;2022-08-04T02:44:03;97131.06;;;19.64;86.67
4814;BME280;15375;48.540;9.268;2022-08-04T02:46:29;97143.94;;;19.67;87.82
4814;BME280;15375;48.540;9.268;2022-08-04T02:48:55;97144.16;;;19.64;88.73
4814;BME280;15375;48.540;9.268;2022-08-04T02:51:29;97140.91;;;19.65;89.38
4814;BME280;15375;48.540;9.268;2022-08-04T02:53:57;97131.31;;;19.46;89.18
4814;BME280;15375;48.540;9.268;2022-08-04T02:56:24;97140.94;;;19.36;89.68
4814;BME280;15375;48.540;9.268;2022-08-04T02:58:57;97142.66;;;19.34;89.68
4814;BME280;15375;48.540;9.268;2022-08-04T03:01:22;97140.41;;;19.32;90.69
4814;BME280;15375;48.540;9.268;2022-08-04T03:04:17;97157.00;;;19.32;92.28
4814;BME280;15375;48.540;9.268;2022-08-04T03:07:14;97147.84;;;19.26;93.66
4814;BME280;15375;48.540;9.268;2022-08-04T03:13:26;97148.22;;;19.19;94.93
4814;BME280;15375;48.540;9.268;2022-08-04T03:16:29;97140.44;;;19.03;94.56
4814;BME280;15375;48.540;9.268;2022-08-04T03:19:14;97149.28;;;19.07;95.67
4814;BME280;15375;48.540;9.268;2022-08-04T03:25:05;97157.69;;;18.98;97.64
4814;BME280;15375;48.540;9.268;2022-08-04T03:28:03;97148.44;;;18.86;97.47
4814;BME280;15375;48.540;9.268;2022-08-04T03:44:05;97154.47;;;18.70;96.79
4814;BME280;15375;48.540;9.268;2022-08-04T03:46:59;97165.91;;;18.78;95.46
4814;BME280;15375;48.540;9.268;2022-08-04T04:15:30;97169.97;;;18.68;98.70
4814;BME280;15375;48.540;9.268;2022-08-04T04:18:26;97163.88;;;18.64;99.91
4814;BME280;15375;48.540;9.268;2022-08-04T04:21:20;97173.41;;;18.77;100.00
4814;BME280;15375;48.540;9.268;2022-08-04T04:26:45;97158.28;;;18.73;100.00
4814;BME280;15375;48.540;9.268;2022-08-04T04:29:33;97177.41;;;18.91;100.00
4814;BME280;15375;48.540;9.268;2022-08-04T04:32:22;97162.75;;;18.99;100.00
4814;BME280;15375;48.540;9.268;2022-08-04T04:34:51;97172.94;;;19.08;100.00
4814;BME280;15375;48.540;9.268;2022-08-04T04:37:42;97170.91;;;19.08;98.79
4814;BME280;15375;48.540;9.268;2022-08-04T04:40:33;97160.84;;;19.05;97.37
4814;BME280;15375;48.540;9.268;2022-08-04T04:43:26;97178.53;;;19.13;96.36
4814;BME280;15375;48.540;9.268;2022-08-04T04:46:08;97170.56;;;19.16;96.07
4814;BME280;15375;48.540;9.268;2022-08-04T04:49:07;97184.81;;;19.29;95.61
4814;BME280;15375;48.540;9.268;2022-08-04T04:52:05;97163.09;;;19.22;95.31
4814;BME280;15375;48.540;9.268;2022-08-04T04:54:42;97177.88;;;19.33;92.31
4814;BME280;15375;48.540;9.268;2022-08-04T04:57:20;97187.97;;;19.36;91.90
4814;BME280;15375;48.540;9.268;2022-08-04T04:59:52;97192.16;;;19.46;91.58
4814;BME280;15375;48.540;9.268;2022-08-04T05:05:05;97189.94;;;19.65;90.22
4814;BME280;15375;48.540;9.268;2022-08-04T05:10:49;97194.75;;;19.85;86.27
4814;BME280;15375;48.540;9.268;2022-08-04T05:14:05;97192.56;;;19.89;86.30
4814;BME280;15375;48.540;9.268;2022-08-04T05:21:51;97183.63;;;20.19;82.02
4814;BME280;15375;48.540;9.268;2022-08-04T05:24:19;97190.03;;;20.46;82.31
4814;BME280;15375;48.540;9.268;2022-08-04T05:26:50;97181.16;;;20.62;81.17
4814;BME280;15375;48.540;9.268;2022-08-04T05:29:34;97177.13;;;20.88;82.53
4814;BME280;15375;48.540;9.268;2022-08-04T05:32:07;97183.13;;;21.07;83.19
4814;BME280;15375;48.540;9.268;2022-08-04T05:34:40;97183.53;;;21.26;80.78
4814;BME280;15375;48.540;9.268;2022-08-04T05:37:08;97169.88;;;22.49;73.88
4814;BME280;15375;48.540;9.268;2022-08-04T05:39:54;97185.94;;;25.08;64.65
4814;BME280;15375;48.540;9.268;2022-08-04T05:42:20;97186.97;;;26.85;56.06
4814;BME280;15375;48.540;9.268;2022-08-04T05:44:46;97184.50;;;27.90;52.12
4814;BME280;15375;48.540;9.268;2022-08-04T05:47:12;97189.06;;;29.60;48.14
4814;BME280;15375;48.540;9.268;2022-08-04T05:49:40;97181.16;;;30.28;45.54
4814;BME280;15375;48.540;9.268;2022-08-04T05:52:08;97196.53;;;30.99;44.38
4814;BME280;15375;48.540;9.268;2022-08-04T05:54:35;97192.09;;;33.34;41.51
4814;BME280;15375;48.540;9.268;2022-08-04T05:57:04;97194.28;;;35.03;39.20
4814;BME280;15375;48.540;9.268;2022-08-04T05:59:30;97201.75;;;36.91;37.08
4814;BME280;15375;48.540;9.268;2022-08-04T06:01:58;97208.63;;;37.86;34.76
4814;BME280;15375;48.540;9.268;2022-08-04T06:04:30;97201.97;;;38.66;33.34
4814;BME280;15375;48.540;9.268;2022-08-04T06:06:57;97214.63;;;39.40;32.37
4814;BME280;15375;48.540;9.268;2022-08-04T06:09:22;97212.97;;;38.39;33.89
4814;BME280;15375;48.540;9.268;2022-08-04T06:11:49;97204.50;;;39.05;33.24
4814;BME280;15375;48.540;9.268;2022-08-04T06:14:17;97215.09;;;39.93;31.74
4814;BME280;15375;48.540;9.268;2022-08-04T06:16:45;97202.06;;;39.67;31.94
4814;BME280;15375;48.540;9.268;2022-08-04T06:19:12;97200.06;;;37.46;34.24
4814;BME280;15375;48.540;9.268;2022-08-04T06:21:42;97199.63;;;37.40;34.42
4814;BME280;15375;48.540;9.268;2022-08-04T06:24:12;97172.34;;;37.77;33.75
4814;BME280;15375;48.540;9.268;2022-08-04T06:26:41;97192.88;;;36.11;35.38
4814;BME280;15375;48.540;9.268;2022-08-04T06:29:08;97189.94;;;36.76;35.66
4814;BME280;15375;48.540;9.268;2022-08-04T06:31:42;97182.31;;;36.78;35.46
4814;BME280;15375;48.540;9.268;2022-08-04T06:34:13;97209.19;;;35.20;37.07
4814;BME280;15375;48.540;9.268;2022-08-04T06:36:41;97207.84;;;36.21;36.36
4814;BME280;15375;48.540;9.268;2022-08-04T06:39:08;97183.94;;;35.68;36.70
4814;BME280;15375;48.540;9.268;2022-08-04T06:41:34;97202.56;;;37.61;35.15
4814;BME280;15375;48.540;9.268;2022-08-04T06:44:02;97198.38;;;38.45;33.34
4814;BME280;15375;48.540;9.268;2022-08-04T06:46:30;97176.53;;;39.36;31.30
4814;BME280;15375;48.540;9.268;2022-08-04T06:48:56;97172.97;;;40.28;30.70
4814;BME280;15375;48.540;9.268;2022-08-04T06:51:23;97190.94;;;40.42;31.62
4814;BME280;15375;48.540;9.268;2022-08-04T06:53:49;97192.19;;;39.58;32.21
4814;BME280;15375;48.540;9.268;2022-08-04T06:56:15;97184.25;;;39.45;32.59
4814;BME280;15375;48.540;9.268;2022-08-04T06:58:44;97191.75;;;39.62;32.29
4814;BME280;15375;48.540;9.268;2022-08-04T07:01:10;97194.13;;;38.88;33.15
4814;BME280;15375;48.540;9.268;2022-08-04T07:03:37;97181.22;;;37.22;35.16
4814;BME280;15375;48.540;9.268;2022-08-04T07:06:02;97190.13;;;36.49;35.58
4814;BME280;15375;48.540;9.268;2022-08-04T07:08:28;97199.31;;;35.39;37.37
4814;BME280;15375;48.540;9.268;2022-08-04T07:10:54;97182.44;;;33.69;38.89
4814;BME280;15375;48.540;9.268;2022-08-04T07:13:22;97173.19;;;33.44;40.15
4814;BME280;15375;48.540;9.268;2022-08-04T07:15:48;97191.72;;;33.05;40.82
4814;BME280;15375;48.540;9.268;2022-08-04T07:18:14;97168.25;;;32.10;41.50
4814;BME280;15375;48.540;9.268;2022-08-04T07:20:44;97189.75;;;33.23;41.46
4814;BME280;15375;48.540;9.268;2022-08-04T07:23:12;97141.22;;;33.34;41.45
4814;BME280;15375;48.540;9.268;2022-08-04T07:25:42;97174.53;;;32.63;40.78
4814;BME280;15375;48.540;9.268;2022-08-04T07:28:08;97186.53;;;31.86;43.45
4814;BME280;15375;48.540;9.268;2022-08-04T07:30:34;97163.41;;;30.76;44.15
4814;BME280;15375;48.540;9.268;2022-08-04T07:33:00;97159.81;;;32.02;42.75
4814;BME280;15375;48.540;9.268;2022-08-04T07:35:27;97156.72;;;31.02;43.40
4814;BME280;15375;48.540;9.268;2022-08-04T07:37:52;97168.22;;;31.27;44.06
4814;BME280;15375;48.540;9.268;2022-08-04T07:40:18;97169.34;;;31.09;44.06
4814;BME280;15375;48.540;9.268;2022-08-04T07:42:43;97167.91;;;31.45;44.45
4814;BME280;15375;48.540;9.268;2022-08-04T07:45:09;97176.28;;;32.51;43.53
4814;BME280;15375;48.540;9.268;2022-08-04T07:47:35;97165.69;;;33.39;41.72
4814;BME280;15375;48.540;9.268;2022-08-04T07:50:01;97150.69;;;33.78;40.86
4814;BME280;15375;48.540;9.268;2022-08-04T07:52:27;97151.50;;;33.71;41.13
4814;BME280;15375;48.540;9.268;2022-08-04T07:54:53;97162.94;;;33.56;41.32
4814;BME280;15375;48.540;9.268;2022-08-04T07:57:19;97167.94;;;33.90;40.52
4814;BME280;15375;48.540;9.268;2022-08-04T07:59:45;97177.84;;;33.49;40.31
4814;BME280;15375;48.540;9.268;2022-08-04T08:02:13;97188.34;;;31.38;43.88
4814;BME280;15375;48.540;9.268;2022-08-04T08:04:40;97149.44;;;32.12;42.63
4814;BME280;15375;48.540;9.268;2022-08-04T08:07:07;97157.53;;;32.78;42.42
4814;BME280;15375;48.540;9.268;2022-08-04T08:09:33;97163.03;;;33.41;41.58
4814;BME280;15375;48.540;9.268;2022-08-04T08:11:58;97160.41;;;34.10;41.07
4814;BME280;15375;48.540;9.268;2022-08-04T08:14:24;97143.03;;;34.30;39.62
4814;BME280;15375;48.540;9.268;2022-08-04T08:16:51;97121.66;;;33.28;40.33
4814;BME280;15375;48.540;9.268;2022-08-04T08:19:16;97130.59;;;32.85;42.05
4814;BME280;15375;48.540;9.268;2022-08-04T08:21:46;97150.34;;;32.30;43.16
4814;BME280;15375;48.540;9.268;2022-08-04T08:24:13;97141.69;;;32.28;43.00
4814;BME280;15375;48.540;9.268;2022-08-04T08:26:40;97146.91;;;33.26;41.77
4814;BME280;15375;48.540;9.268;2022-08-04T08:29:06;97149.25;;;33.70;39.59
4814;BME280;15375;48.540;9.268;2022-08-04T08:31:31;97143.72;;;34.21;40.40
4814;BME280;15375;48.540;9.268;2022-08-04T08:33:58;97127.38;;;34.46;39.24
4814;BME280;15375;48.540;9.268;2022-08-04T08:57:49;97167.72;;;35.52;39.23
4814;BME280;15375;48.540;9.268;2022-08-04T09:06:15;97163.91;;;36.03;38.02
4814;BME280;15375;48.540;9.268;2022-08-04T09:12:08;97162.13;;;36.36;38.18
4814;BME280;15375;48.540;9.268;2022-08-04T09:14:49;97145.38;;;36.11;38.82
4814;BME280;15375;48.540;9.268;2022-08-04T09:17:32;97155.59;;;36.53;37.67
4814;BME280;15375;48.540;9.268;2022-08-04T09:20:09;97156.28;;;36.43;35.77
4814;BME280;15375;48.540;9.268;2022-08-04T09:25:10;97138.34;;;36.41;36.07
4814;BME280;15375;48.540;9.268;2022-08-04T09:27:45;97141.78;;;36.39;36.50
4814;BME280;15375;48.540;9.268;2022-08-04T09:30:17;97152.56;;;36.41;36.41
4814;BME280;15375;48.540;9.268;2022-08-04T09:33:09;97136.41;;;36.53;37.40
4814;BME280;15375;48.540;9.268;2022-08-04T09:35:51;97148.97;;;36.98;37.30
4814;BME280;15375;48.540;9.268;2022-08-04T09:38:28;97134.28;;;37.01;36.85
4814;BME280;15375;48.540;9.268;2022-08-04T09:41:38;97143.72;;;36.85;37.18
4814;BME280;15375;48.540;9.268;2022-08-04T09:44:20;97150.16;;;37.04;37.25
4814;BME280;15375;48.540;9.268;2022-08-04T09:46:52;97149.88;;;37.00;36.52
4814;BME280;15375;48.540;9.268;2022-08-04T09:57:12;97120.69;;;37.00;35.66
4814;BME280;15375;48.540;9.268;2022-08-04T10:00:00;97127.81;;;37.60;34.62
4814;BME280;15375;48.540;9.268;2022-08-04T10:02:31;97126.31;;;37.59;34.36
4814;BME280;15375;48.540;9.268;2022-08-04T10:05:01;97121.28;;;37.48;34.58
4814;BME280;15375;48.540;9.268;2022-08-04T10:13:24;97110.97;;;36.84;33.58
4814;BME280;15375;48.540;9.268;2022-08-04T10:21:10;97111.81;;;37.55;34.47
4814;BME280;15375;48.540;9.268;2022-08-04T10:23:46;97112.00;;;38.00;33.80
4814;BME280;15375;48.540;9.268;2022-08-04T10:29:23;97109.28;;;37.09;33.54
4814;BME280;15375;48.540;9.268;2022-08-04T10:32:08;97108.66;;;38.24;31.84
4814;BME280;15375;48.540;9.268;2022-08-04T10:37:23;97105.28;;;37.95;31.27
4814;BME280;15375;48.540;9.268;2022-08-04T10:40:04;97097.97;;;37.61;31.20
4814;BME280;15375;48.540;9.268;2022-08-04T10:43:04;97076.34;;;37.47;29.22
4814;BME280;15375;48.540;9.268;2022-08-04T10:45:45;97090.31;;;37.64;29.98
4814;BME280;15375;48.540;9.268;2022-08-04T10:48:21;97091.41;;;38.11;30.19
4814;BME280;15375;48.540;9.268;2022-08-04T10:51:01;97079.66;;;37.95;29.33
4814;BME280;15375;48.540;9.268;2022-08-04T10:53:29;97077.94;;;38.23;29.07
4814;BME280;15375;48.540;9.268;2022-08-04T10:56:08;97083.59;;;38.11;29.23
4814;BME280;15375;48.540;9.268;2022-08-04T10:58:43;97083.31;;;38.07;28.74
4814;BME280;15375;48.540;9.268;2022-08-04T11:01:18;97093.06;;;38.25;29.67
4814;BME280;15375;48.540;9.268;2022-08-04T11:03:52;97082.19;;;38.01;29.59
4814;BME280;15375;48.540;9.268;2022-08-04T11:06:22;97076.88;;;38.07;27.52
4814;BME280;15375;48.540;9.268;2022-08-04T11:08:51;97077.47;;;38.26;28.79
4814;BME280;15375;48.540;9.268;2022-08-04T11:11:43;97089.69;;;38.17;28.74
4814;BME280;15375;48.540;9.268;2022-08-04T11:14:14;97075.56;;;38.19;29.27
4814;BME280;15375;48.540;9.268;2022-08-04T11:16:46;97075.59;;;38.52;29.60
4814;BME280;15375;48.540;9.268;2022-08-04T11:19:42;97083.72;;;38.13;30.46
4814;BME280;15375;48.540;9.268;2022-08-04T11:22:14;97081.81;;;38.81;28.73
4814;BME280;15375;48.540;9.268;2022-08-04T11:24:54;97089.66;;;39.04;28.80
4814;BME280;15375;48.540;9.268;2022-08-04T11:30:11;97068.69;;;38.55;27.69
4814;BME280;15375;48.540;9.268;2022-08-04T11:33:12;97091.94;;;37.98;29.05
4814;BME280;15375;48.540;9.268;2022-08-04T11:35:56;97081.22;;;38.29;28.10
4814;BME280;15375;48.540;9.268;2022-08-04T11:41:09;97066.63;;;38.35;28.92
4814;BME280;15375;48.540;9.268;2022-08-04T11:43:41;97087.38;;;38.47;29.82
4814;BME280;15375;48.540;9.268;2022-08-04T11:46:13;97083.22;;;38.59;27.80
4814;BME280;15375;48.540;9.268;2022-08-04T11:48:44;97072.19;;;38.65;29.70
4814;BME280;15375;48.540;9.268;2022-08-04T11:51:13;97080.81;;;38.77;30.40
4814;BME280;15375;48.540;9.268;2022-08-04T11:53:39;97045.88;;;38.55;30.35
4814;BME280;15375;48.540;9.268;2022-08-04T11:56:10;97031.03;;;38.68;29.26
4814;BME280;15375;48.540;9.268;2022-08-04T11:58:37;97081.53;;;38.77;29.83
4814;BME280;15375;48.540;9.268;2022-08-04T12:01:10;97071.38;;;38.74;29.21
4814;BME280;15375;48.540;9.268;2022-08-04T12:06:48;97056.31;;;37.04;29.10
4814;BME280;15375;48.540;9.268;2022-08-04T12:12:01;97062.78;;;36.95;30.17
4814;BME280;15375;48.540;9.268;2022-08-04T12:14:46;97068.53;;;37.78;32.06
4814;BME280;15375;48.540;9.268;2022-08-04T12:17:21;97067.97;;;37.70;31.54
4814;BME280;15375;48.540;9.268;2022-08-04T12:19:57;97069.88;;;38.41;30.12
4814;BME280;15375;48.540;9.268;2022-08-04T12:22:27;97055.72;;;38.31;30.29
4814;BME280;15375;48.540;9.268;2022-08-04T12:25:05;97067.78;;;38.74;30.73
4814;BME280;15375;48.540;9.268;2022-08-04T12:27:51;97067.66;;;38.83;29.57
4814;BME280;15375;48.540;9.268;2022-08-04T12:30:18;97059.22;;;38.74;29.91
4814;BME280;15375;48.540;9.268;2022-08-04T12:32:53;97043.16;;;38.57;28.75
4814;BME280;15375;48.540;9.268;2022-08-04T12:35:28;97067.69;;;38.62;30.75
4814;BME280;15375;48.540;9.268;2022-08-04T12:40:47;97060.06;;;38.11;28.92
4814;BME280;15375;48.540;9.268;2022-08-04T12:43:19;97050.94;;;37.82;28.96
4814;BME280;15375;48.540;9.268;2022-08-04T12:45:53;97048.31;;;37.22;29.04
4814;BME280;15375;48.540;9.268;2022-08-04T12:48:21;97042.72;;;36.84;29.80
4814;BME280;15375;48.540;9.268;2022-08-04T12:50:53;97033.69;;;37.06;30.09
4814;BME280;15375;48.540;9.268;2022-08-04T12:53:29;97029.22;;;37.34;30.14
4814;BME280;15375;48.540;9.268;2022-08-04T12:55:57;97026.09;;;37.61;29.60
4814;BME280;15375;48.540;9.268;2022-08-04T12:58:25;97035.56;;;37.54;29.11
4814;BME280;15375;48.540;9.268;2022-08-04T13:03:18;97012.16;;;37.34;28.31
4814;BME280;15375;48.540;9.268;2022-08-04T13:05:45;97023.44;;;37.75;29.01
4814;BME280;15375;48.540;9.268;2022-08-04T13:08:12;97031.56;;;37.47;28.72
4814;BME280;15375;48.540;9.268;2022-08-04T13:10:41;97024.06;;;37.73;29.80
4814;BME280;15375;48.540;9.268;2022-08-04T13:13:18;97020.41;;;38.03;30.53
4814;BME280;15375;48.540;9.268;2022-08-04T13:15:55;97017.66;;;37.84;30.40
4814;BME280;15375;48.540;9.268;2022-08-04T13:18:21;97025.34;;;37.82;28.88
4814;BME280;15375;48.540;9.268;2022-08-04T13:20:47;97018.91;;;38.02;29.30
4814;BME280;15375;48.540;9.268;2022-08-04T13:23:15;96995.25;;;37.57;29.27
4814;BME280;15375;48.540;9.268;2022-08-04T13:25:43;97010.19;;;37.16;29.98
4814;BME280;15375;48.540;9.268;2022-08-04T13:28:20;96992.31;;;36.84;30.66
4814;BME280;15375;48.540;9.268;2022-08-04T13:30:48;97008.31;;;36.89;30.58
4814;BME280;15375;48.540;9.268;2022-08-04T13:33:17;96986.38;;;37.42;30.90
4814;BME280;15375;48.540;9.268;2022-08-04T13:35:45;96986.44;;;37.01;29.88
4814;BME280;15375;48.540;9.268;2022-08-04T13:38:15;97000.75;;;37.13;29.43
4814;BME280;15375;48.540;9.268;2022-08-04T13:40:42;96999.44;;;37.04;29.00
4814;BME280;15375;48.540;9.268;2022-08-04T13:43:09;96985.44;;;36.37;30.32
4814;BME280;15375;48.540;9.268;2022-08-04T13:45:39;96984.69;;;36.18;30.56
4814;BME280;15375;48.540;9.268;2022-08-04T13:48:06;96978.91;;;36.06;30.55
4814;BME280;15375;48.540;9.268;2022-08-04T13:50:32;96996.78;;;36.37;30.33
4814;BME280;15375;48.540;9.268;2022-08-04T13:52:59;96969.09;;;36.38;30.05
4814;BME280;15375;48.540;9.268;2022-08-04T13:55:33;96971.44;;;36.70;30.36
4814;BME280;15375;48.540;9.268;2022-08-04T13:58:20;96973.72;;;37.02;29.91
4814;BME280;15375;48.540;9.268;2022-08-04T14:00:57;96987.97;;;36.93;29.72
4814;BME280;15375;48.540;9.268;2022-08-04T14:06:28;96972.84;;;37.52;31.39
4814;BME280;15375;48.540;9.268;2022-08-04T14:09:14;96970.72;;;37.52;29.38
4814;BME280;15375;48.540;9.268;2022-08-04T14:11:43;96960.19;;;37.43;30.16
4814;BME280;15375;48.540;9.268;2022-08-04T14:14:28;96970.47;;;37.91;29.40
4814;BME280;15375;48.540;9.268;2022-08-04T14:17:15;96960.72;;;38.05;29.07
4814;BME280;15375;48.540;9.268;2022-08-04T14:19:54;96966.59;;;38.19;29.34
4814;BME280;15375;48.540;9.268;2022-08-04T14:27:21;96964.94;;;38.04;30.52
4814;BME280;15375;48.540;9.268;2022-08-04T14:29:46;96950.84;;;38.06;29.50
4814;BME280;15375;48.540;9.268;2022-08-04T14:32:12;96961.53;;;37.63;31.73
4814;BME280;15375;48.540;9.268;2022-08-04T14:34:39;96954.13;;;37.49;29.51
4814;BME280;15375;48.540;9.268;2022-08-04T14:37:10;96944.16;;;37.38;29.67
4814;BME280;15375;48.540;9.268;2022-08-04T14:39:45;96949.53;;;37.86;31.06
4814;BME280;15375;48.540;9.268;2022-08-04T14:42:14;96935.72;;;37.83;29.86
4814;BME280;15375;48.540;9.268;2022-08-04T14:44:56;96936.78;;;37.66;31.05
4814;BME280;15375;48.540;9.268;2022-08-04T14:47:46;96940.50;;;37.90;29.23
4814;BME280;15375;48.540;9.268;2022-08-04T14:50:12;96948.56;;;37.93;29.00
4814;BME280;15375;48.540;9.268;2022-08-04T14:52:39;96928.66;;;37.30;30.02
4814;BME280;15375;48.540;9.268;2022-08-04T14:55:23;96945.00;;;37.50;29.86
4814;BME280;15375;48.540;9.268;2022-08-04T14:57:50;96929.72;;;37.25;30.92
4814;BME280;15375;48.540;9.268;2022-08-04T15:00:29;96944.50;;;37.33;30.40
4814;BME280;15375;48.540;9.268;2022-08-04T15:03:08;96925.44;;;36.83;30.51
4814;BME280;15375;48.540;9.268;2022-08-04T15:05:38;96938.00;;;36.90;30.82
4814;BME280;15375;48.540;9.268;2022-08-04T15:08:04;96942.84;;;37.08;30.67
4814;BME280;15375;48.540;9.268;2022-08-04T15:10:30;96927.00;;;37.05;30.60
4814;BME280;15375;48.540;9.268;2022-08-04T15:12:56;96943.22;;;36.93;30.37
4814;BME280;15375;48.540;9.268;2022-08-04T15:15:23;96944.84;;;36.96;30.56
4814;BME280;15375;48.540;9.268;2022-08-04T15:17:50;96929.78;;;36.84;30.51
4814;BME280;15375;48.540;9.268;2022-08-04T15:20:16;96933.94;;;36.93;30.18
4814;BME280;15375;48.540;9.268;2022-08-04T15:22:42;96927.66;;;36.94;30.76
4814;BME280;15375;48.540;9.268;2022-08-04T15:25:07;96928.22;;;37.02;30.79
4814;BME280;15375;48.540;9.268;2022-08-04T15:27:36;96922.66;;;37.04;30.88
4814;BME280;15375;48.540;9.268;2022-08-04T15:30:05;96926.06;;;37.13;30.87
4814;BME280;15375;48.540;9.268;2022-08-04T15:32:33;96931.69;;;37.22;31.78
4814;BME280;15375;48.540;9.268;2022-08-04T15:35:11;96940.41;;;37.15;31.58
4814;BME280;15375;48.540;9.268;2022-08-04T15:40:42;96946.06;;;36.93;31.48
4814;BME280;15375;48.540;9.268;2022-08-04T15:43:21;96923.56;;;37.07;30.78
4814;BME280;15375;48.540;9.268;2022-08-04T15:45:50;96931.84;;;36.93;30.63
4814;BME280;15375;48.540;9.268;2022-08-04T15:58:50;96933.84;;;36.81;30.77
4814;BME280;15375;48.540;9.268;2022-08-04T16:01:16;96916.31;;;36.44;30.93
4814;BME280;15375;48.540;9.268;2022-08-04T16:03:49;96926.03;;;36.51;31.02
4814;BME280;15375;48.540;9.268;2022-08-04T16:09:00;96924.53;;;36.60;32.20
4814;BME280;15375;48.540;9.268;2022-08-04T16:22:06;96912.59;;;36.42;32.79
4814;BME280;15375;48.540;9.268;2022-08-04T16:24:37;96924.25;;;36.46;32.32
4814;BME280;15375;48.540;9.268;2022-08-04T16:27:07;96910.25;;;36.29;31.32
4814;BME280;15375;48.540;9.268;2022-08-04T16:29:43;96908.19;;;36.20;31.57
4814;BME280;15375;48.540;9.268;2022-08-04T16:34:58;96902.22;;;36.16;32.28
4814;BME280;15375;48.540;9.268;2022-08-04T16:43:06;96913.91;;;36.01;32.98
4814;BME280;15375;48.540;9.268;2022-08-04T16:45:46;96906.72;;;35.80;33.19
4814;BME280;15375;48.540;9.268;2022-08-04T16:48:12;96904.66;;;35.71;33.66
4814;BME280;15375;48.540;9.268;2022-08-04T16:50:50;96893.63;;;35.56;33.00
4814;BME280;15375;48.540;9.268;2022-08-04T16:53:17;96890.66;;;35.54;33.24
4814;BME280;15375;48.540;9.268;2022-08-04T16:55:48;96890.03;;;35.56;33.56
4814;BME280;15375;48.540;9.268;2022-08-04T16:58:15;96910.34;;;35.62;33.06
4814;BME280;15375;48.540;9.268;2022-08-04T17:00:41;96883.59;;;35.46;33.50
4814;BME280;15375;48.540;9.268;2022-08-04T17:03:09;96892.09;;;35.36;33.76
4814;BME280;15375;48.540;9.268;2022-08-04T17:05:35;96907.78;;;35.47;33.95
4814;BME280;15375;48.540;9.268;2022-08-04T17:08:03;96898.66;;;35.48;33.87
4814;BME280;15375;48.540;9.268;2022-08-04T17:10:37;96902.84;;;35.28;34.04
4814;BME280;15375;48.540;9.268;2022-08-04T17:13:25;96896.72;;;35.22;34.44